Time;durP1;ratioP1;P1;durP2;ratioP2;P2;SDS_P1;SDS_P2;PMS_P1;PMS_P2;Temp;Humidity;BMP_temperature;BMP_pressure;BME280_temperature;BME280_humidity;BME280_pressure;Samples;Min_cycle;Max_cycle;Signal;HPM_P1;HPM_P2
2023/09/30 00:01:18;;;;;;;18.77;7.97;;;;;;;;;;5019632;28;20064;-61
2023/09/30 00:03:44;;;;;;;14.75;6.35;;;;;;;;;;5027922;28;20038;-61
2023/09/30 00:06:10;;;;;;;22.08;6.60;;;;;;;;;;5028083;28;20373;-61
2023/09/30 00:08:39;;;;;;;14.45;6.22;;;;;;;;;;5026403;28;20052;-60
2023/09/30 00:11:05;;;;;;;19.80;6.40;;;;;;;;;;5019794;28;20044;-60
2023/09/30 00:13:31;;;;;;;17.63;6.32;;;;;;;;;;5024135;28;20044;-61
2023/09/30 00:15:57;;;;;;;14.25;5.85;;;;;;;;;;5023518;28;20088;-57
2023/09/30 00:18:23;;;;;;;17.25;5.88;;;;;;;;;;5019380;28;20496;-60
2023/09/30 00:20:50;;;;;;;20.90;5.95;;;;;;;;;;5028359;28;20029;-61
2023/09/30 00:23:15;;;;;;;18.27;6.88;;;;;;;;;;5020081;28;20112;-61
2023/09/30 00:25:41;;;;;;;14.43;5.95;;;;;;;;;;5016777;28;20112;-61
2023/09/30 00:28:08;;;;;;;14.00;6.15;;;;;;;;;;5026715;28;20025;-58
2023/09/30 00:30:33;;;;;;;17.65;6.13;;;;;;;;;;5016690;28;20025;-59
2023/09/30 00:33:00;;;;;;;16.02;5.65;;;;;;;;;;5028977;28;20550;-60
2023/09/30 00:35:26;;;;;;;17.75;6.25;;;;;;;;;;5015978;28;20042;-60
2023/09/30 00:37:52;;;;;;;11.88;5.90;;;;;;;;;;5019805;28;20033;-59
2023/09/30 00:40:18;;;;;;;17.63;6.45;;;;;;;;;;5022982;28;20079;-60
2023/09/30 00:42:44;;;;;;;13.20;4.72;;;;;;;;;;5027098;28;20443;-61
2023/09/30 00:45:10;;;;;;;14.80;5.80;;;;;;;;;;5028169;28;20052;-59
2023/09/30 00:47:37;;;;;;;14.10;5.40;;;;;;;;;;5025149;28;20033;-59
2023/09/30 00:50:04;;;;;;;19.75;5.70;;;;;;;;;;5025383;28;20029;-60
2023/09/30 00:52:33;;;;;;;22.52;5.75;;;;;;;;;;5024427;28;20089;-60
2023/09/30 00:54:59;;;;;;;15.07;4.82;;;;;;;;;;5031631;28;20056;-58
2023/09/30 00:57:25;;;;;;;18.42;5.38;;;;;;;;;;5018611;28;20018;-61
2023/09/30 00:59:52;;;;;;;22.58;6.25;;;;;;;;;;5025609;28;20037;-58
2023/09/30 01:02:18;;;;;;;20.60;5.72;;;;;;;;;;5017804;28;20080;-57
2023/09/30 01:04:45;;;;;;;18.05;6.93;;;;;;;;;;5027553;28;20034;-62
2023/09/30 01:07:11;;;;;;;13.90;6.38;;;;;;;;;;5025064;28;20525;-58
2023/09/30 01:09:37;;;;;;;19.30;6.32;;;;;;;;;;5020943;28;20048;-60
2023/09/30 01:12:03;;;;;;;12.88;5.63;;;;;;;;;;5025581;28;20399;-60
2023/09/30 01:14:31;;;;;;;14.90;5.53;;;;;;;;;;5031374;28;20053;-58
2023/09/30 01:16:57;;;;;;;21.83;5.72;;;;;;;;;;5028731;28;20025;-57
2023/09/30 01:19:24;;;;;;;15.98;6.30;;;;;;;;;;5027972;28;20400;-61
2023/09/30 01:21:51;;;;;;;14.13;5.55;;;;;;;;;;5017544;28;20030;-60
2023/09/30 01:24:17;;;;;;;16.10;5.63;;;;;;;;;;5026914;28;20041;-59
2023/09/30 01:26:43;;;;;;;23.83;7.38;;;;;;;;;;5034885;28;20030;-58
2023/09/30 01:29:12;;;;;;;21.08;6.22;;;;;;;;;;5015143;28;20447;-61
2023/09/30 01:31:39;;;;;;;21.40;6.38;;;;;;;;;;5026805;28;20508;-60
2023/09/30 01:34:05;;;;;;;19.88;6.78;;;;;;;;;;5021399;28;20022;-61
2023/09/30 01:36:31;;;;;;;12.45;5.25;;;;;;;;;;5020910;28;20495;-59
2023/09/30 01:38:57;;;;;;;15.60;5.60;;;;;;;;;;5030051;28;20026;-61
2023/09/30 01:41:23;;;;;;;19.77;6.05;;;;;;;;;;5022065;28;20033;-60
2023/09/30 01:43:49;;;;;;;15.38;6.38;;;;;;;;;;5022224;28;20084;-62
2023/09/30 01:46:15;;;;;;;13.77;7.25;;;;;;;;;;5026004;28;20208;-60
2023/09/30 01:48:41;;;;;;;18.83;6.38;;;;;;;;;;5021052;28;20462;-57
2023/09/30 01:51:07;;;;;;;18.33;5.65;;;;;;;;;;5023841;28;20026;-59
2023/09/30 01:53:33;;;;;;;16.33;5.68;;;;;;;;;;5027667;28;20424;-59
2023/09/30 01:55:59;;;;;;;15.15;5.82;;;;;;;;;;5027323;28;20053;-59
2023/09/30 01:58:25;;;;;;;16.73;6.75;;;;;;;;;;5024374;28;20052;-60
2023/09/30 02:00:52;;;;;;;15.90;6.60;;;;;;;;;;5021797;28;20025;-60
2023/09/30 02:03:18;;;;;;;20.90;6.90;;;;;;;;;;5019189;28;20021;-59
2023/09/30 02:05:44;;;;;;;17.67;7.18;;;;;;;;;;5024195;28;20084;-60
2023/09/30 02:08:10;;;;;;;12.68;5.25;;;;;;;;;;5019604;28;20112;-60
2023/09/30 02:10:36;;;;;;;23.35;7.13;;;;;;;;;;5022173;28;20096;-61
2023/09/30 02:13:05;;;;;;;19.98;6.20;;;;;;;;;;5029488;28;20509;-60
2023/09/30 02:15:32;;;;;;;18.20;5.55;;;;;;;;;;5021602;28;20077;-59
2023/09/30 02:18:00;;;;;;;14.02;5.88;;;;;;;;;;5030917;28;20230;-61
2023/09/30 02:20:29;;;;;;;17.48;5.60;;;;;;;;;;5013923;28;20026;-59
2023/09/30 02:22:55;;;;;;;26.38;6.80;;;;;;;;;;5020040;28;20034;-62
2023/09/30 02:25:21;;;;;;;18.15;6.18;;;;;;;;;;5027496;28;20056;-61
2023/09/30 02:27:49;;;;;;;19.80;6.25;;;;;;;;;;5023949;28;20025;-62
2023/09/30 02:30:16;;;;;;;15.95;6.35;;;;;;;;;;5019666;28;20033;-62
2023/09/30 02:32:42;;;;;;;19.50;7.18;;;;;;;;;;5019814;28;20110;-54
2023/09/30 02:35:10;;;;;;;21.02;6.18;;;;;;;;;;5023586;28;20024;-59
2023/09/30 02:37:37;;;;;;;12.88;6.00;;;;;;;;;;5015127;28;20025;-61
2023/09/30 02:40:05;;;;;;;15.82;6.05;;;;;;;;;;5022851;28;20032;-62
2023/09/30 02:42:31;;;;;;;16.45;6.65;;;;;;;;;;5023750;28;20514;-61
2023/09/30 02:44:57;;;;;;;19.67;8.80;;;;;;;;;;5028546;28;20034;-61
2023/09/30 02:47:22;;;;;;;15.48;6.10;;;;;;;;;;5018420;28;20078;-58
2023/09/30 02:49:49;;;;;;;24.02;7.03;;;;;;;;;;5022674;28;20514;-62
2023/09/30 02:52:15;;;;;;;23.77;6.88;;;;;;;;;;5022099;28;20017;-62
2023/09/30 02:54:41;;;;;;;15.57;6.20;;;;;;;;;;5020208;28;20096;-60
2023/09/30 02:57:09;;;;;;;14.07;5.65;;;;;;;;;;5019917;28;20021;-62
2023/09/30 02:59:36;;;;;;;21.13;6.80;;;;;;;;;;5020088;28;20500;-58
2023/09/30 03:02:03;;;;;;;15.52;6.45;;;;;;;;;;5027292;28;20523;-60
2023/09/30 03:04:28;;;;;;;17.30;6.60;;;;;;;;;;5022847;28;20041;-63
2023/09/30 03:06:58;;;;;;;27.75;8.02;;;;;;;;;;5019012;28;20064;-62
2023/09/30 03:09:24;;;;;;;18.05;6.18;;;;;;;;;;5016954;28;20029;-62
2023/09/30 03:11:50;;;;;;;13.35;6.53;;;;;;;;;;5016774;28;20057;-60
2023/09/30 03:14:16;;;;;;;21.88;7.07;;;;;;;;;;5017608;28;20077;-62
2023/09/30 03:16:44;;;;;;;24.88;6.63;;;;;;;;;;5017861;28;20037;-60
2023/09/30 03:19:11;;;;;;;19.38;6.00;;;;;;;;;;5018580;28;20088;-60
2023/09/30 03:21:37;;;;;;;23.27;7.32;;;;;;;;;;5015495;28;20026;-61
2023/09/30 03:24:04;;;;;;;25.92;7.30;;;;;;;;;;5015457;28;20037;-61
2023/09/30 03:26:30;;;;;;;14.23;6.35;;;21.90;99.90;;;;;;5023613;28;20468;-62
2023/09/30 03:28:56;;;;;;;19.35;6.53;;;11.70;99.90;;;;;;5016796;28;20055;-63
2023/09/30 03:31:22;;;;;;;18.90;6.32;;;11.30;99.90;;;;;;5015975;28;20531;-62
2023/09/30 03:33:49;;;;;;;17.80;6.28;;;11.20;99.90;;;;;;5014967;28;20050;-63
2023/09/30 03:36:15;;;;;;;15.40;6.30;;;11.20;99.90;;;;;;5023132;28;20073;-61
2023/09/30 03:38:41;;;;;;;22.20;7.10;;;11.30;99.90;;;;;;5019832;28;20436;-63
2023/09/30 03:41:08;;;;;;;21.02;6.95;;;11.20;99.90;;;;;;5024874;28;20133;-59
2023/09/30 03:43:40;;;;;;;24.30;6.65;;;11.10;99.90;;;;;;5016762;28;20496;-62
2023/09/30 03:46:06;;;;;;;16.10;6.93;;;11.00;99.90;;;;;;5018719;28;20049;-61
2023/09/30 03:48:32;;;;;;;24.00;7.50;;;11.00;99.90;;;;;;5017433;28;20029;-61
2023/09/30 03:50:57;;;;;;;14.73;6.63;;;11.00;99.90;;;;;;5022217;28;20048;-61
2023/09/30 03:53:26;;;;;;;13.75;6.18;;;10.90;99.90;;;;;;5019597;28;20026;-62
2023/09/30 03:55:51;;;;;;;21.05;6.85;;;10.90;99.90;;;;;;5022986;28;20057;-62
2023/09/30 03:58:18;;;;;;;15.75;6.60;;;11.00;99.90;;;;;;5014715;28;20068;-63
2023/09/30 04:00:44;;;;;;;18.63;6.72;;;11.00;99.90;;;;;;5017946;28;20054;-62
2023/09/30 04:03:10;;;;;;;15.40;6.85;;;10.90;99.90;;;;;;5016618;28;20127;-59
2023/09/30 04:05:36;;;;;;;20.70;7.13;;;10.90;99.90;;;;;;5025459;28;20053;-61
2023/09/30 04:08:02;;;;;;;21.02;6.93;;;10.80;99.90;;;;;;5020529;28;20057;-60
2023/09/30 04:10:30;;;;;;;17.58;6.35;;;10.80;99.90;;;;;;5021730;28;20029;-62
2023/09/30 04:12:55;;;;;;;25.75;7.38;;;10.80;99.90;;;;;;5028298;28;20056;-61
2023/09/30 04:15:21;;;;;;;16.42;7.43;;;10.80;99.90;;;;;;5026241;28;20053;-60
2023/09/30 04:17:48;;;;;;;17.00;7.80;;;10.80;99.90;;;;;;5030130;28;20067;-61
2023/09/30 04:20:20;;;;;;;17.50;7.32;;;10.80;99.90;;;;;;5025785;28;20045;-60
2023/09/30 04:22:48;;;;;;;17.63;6.90;;;10.80;99.90;;;;;;5021982;28;20018;-59
2023/09/30 04:25:16;;;;;;;20.27;6.90;;;10.80;99.90;;;;;;5025587;28;20095;-60
2023/09/30 04:27:42;;;;;;;19.75;8.05;;;10.70;99.90;;;;;;5028123;28;20030;-58
2023/09/30 04:30:11;;;;;;;23.10;7.93;;;10.70;99.90;;;;;;5020191;28;20037;-61
2023/09/30 04:32:38;;;;;;;19.33;7.35;;;10.60;99.90;;;;;;5022454;28;20025;-62
2023/09/30 04:35:05;;;;;;;16.35;6.10;;;10.70;99.90;;;;;;5020380;28;20029;-62
2023/09/30 04:37:30;;;;;;;20.02;6.78;;;10.70;99.90;;;;;;5018497;28;20114;-63
2023/09/30 04:39:57;;;;;;;24.42;7.63;;;10.70;99.90;;;;;;5027621;28;20108;-62
2023/09/30 04:42:25;;;;;;;16.55;6.57;;;10.60;99.90;;;;;;5030553;28;20113;-60
2023/09/30 04:44:51;;;;;;;23.83;7.20;;;10.60;99.90;;;;;;5026070;28;20025;-61
2023/09/30 04:47:18;;;;;;;23.63;7.03;;;10.70;99.90;;;;;;5021791;28;20049;-61
2023/09/30 04:49:44;;;;;;;13.05;6.35;;;10.70;99.90;;;;;;5018904;28;20049;-62
2023/09/30 04:52:10;;;;;;;17.17;6.78;;;10.70;99.90;;;;;;5018892;28;20087;-59
2023/09/30 04:54:35;;;;;;;14.95;6.43;;;10.70;99.90;;;;;;5024640;28;20036;-62
2023/09/30 04:57:02;;;;;;;19.45;6.53;;;10.60;99.90;;;;;;5028480;28;20057;-62
2023/09/30 04:59:28;;;;;;;15.73;6.15;;;10.60;99.90;;;;;;5025367;28;20051;-63
2023/09/30 05:01:54;;;;;;;20.77;6.97;;;10.60;99.90;;;;;;5021132;28;20026;-58
2023/09/30 05:04:20;;;;;;;19.83;6.60;;;10.50;99.90;;;;;;5017125;28;20133;-61
2023/09/30 05:06:45;;;;;;;13.82;6.50;;;10.40;99.90;;;;;;5028561;28;20428;-60
2023/09/30 05:09:12;;;;;;;20.30;7.03;;;10.40;99.90;;;;;;5021965;28;20055;-61
2023/09/30 05:11:38;;;;;;;14.95;6.40;;;10.30;99.90;;;;;;5019305;28;20029;-63
2023/09/30 05:14:05;;;;;;;19.58;7.93;;;10.20;99.90;;;;;;5025399;28;20108;-61
2023/09/30 05:16:31;;;;;;;20.15;7.00;;;10.20;99.90;;;;;;5023824;28;20018;-63
2023/09/30 05:18:57;;;;;;;28.15;7.82;;;10.20;99.90;;;;;;5025868;28;20080;-63
2023/09/30 05:21:23;;;;;;;19.30;7.38;;;10.30;99.90;;;;;;5023235;28;20049;-62
2023/09/30 05:23:49;;;;;;;17.38;7.80;;;10.30;99.90;;;;;;5022403;28;20059;-62
2023/09/30 05:26:15;;;;;;;20.80;7.55;;;10.40;99.90;;;;;;5028200;28;20049;-62
2023/09/30 05:28:42;;;;;;;18.70;7.60;;;10.40;99.90;;;;;;5020383;28;20025;-61
2023/09/30 05:31:08;;;;;;;28.30;7.68;;;10.40;99.90;;;;;;5020694;28;20108;-63
2023/09/30 05:33:33;;;;;;;16.00;6.88;;;10.30;99.90;;;;;;5029573;28;20136;-62
2023/09/30 05:36:02;;;;;;;22.40;7.97;;;10.30;99.90;;;;;;5016001;28;20622;-62
2023/09/30 05:38:29;;;;;;;26.13;8.40;;;10.30;99.90;;;;;;5020899;28;20071;-60
2023/09/30 05:40:55;;;;;;;18.90;7.10;;;10.40;99.90;;;;;;5020992;28;20113;-61
2023/09/30 05:43:21;;;;;;;20.58;7.05;;;10.40;99.90;;;;;;5020165;28;20092;-61
2023/09/30 05:45:54;;;;;;;23.58;8.07;;;10.30;99.90;;;;;;5021605;28;20040;-63
2023/09/30 05:48:20;;;;;;;24.33;7.35;;;10.40;99.90;;;;;;5020519;28;20502;-61
2023/09/30 05:50:47;;;;;;;23.75;7.28;;;10.40;99.90;;;;;;5022659;28;20038;-60
2023/09/30 05:53:13;;;;;;;19.20;7.82;;;10.40;99.90;;;;;;5021432;28;20049;-61
2023/09/30 05:55:42;;;;;;;14.70;6.97;;;10.30;99.90;;;;;;5022318;28;20017;-60
2023/09/30 05:58:09;;;;;;;18.33;7.53;;;10.40;99.90;;;;;;5022099;28;20407;-60
2023/09/30 06:00:35;;;;;;;13.45;7.30;;;10.50;99.90;;;;;;5022635;28;20535;-60
2023/09/30 06:03:01;;;;;;;16.23;7.25;;;10.50;99.90;;;;;;5017767;28;20121;-61
2023/09/30 06:05:30;;;;;;;21.92;7.05;;;10.50;99.90;;;;;;5018466;28;20108;-62
2023/09/30 06:07:55;;;;;;;18.88;6.97;;;10.50;99.90;;;;;;5015190;28;20037;-63
2023/09/30 06:10:22;;;;;;;20.58;8.30;;;10.50;99.90;;;;;;5015025;28;20052;-62
2023/09/30 06:12:48;;;;;;;24.45;7.60;;;10.60;99.90;;;;;;5019135;28;20030;-62
2023/09/30 06:15:21;;;;;;;17.35;8.02;;;10.60;99.90;;;;;;5023691;28;20053;-60
2023/09/30 06:17:48;;;;;;;15.98;7.55;;;10.60;99.90;;;;;;5018173;28;20037;-62
2023/09/30 06:20:17;;;;;;;19.75;7.60;;;10.60;99.90;;;;;;5016403;28;20107;-62
2023/09/30 06:22:49;;;;;;;16.30;7.32;;;10.70;99.90;;;;;;5018710;28;20026;-62
2023/09/30 06:25:16;;;;;;;22.20;7.63;;;10.70;99.90;;;;;;5018666;28;20025;-61
2023/09/30 06:27:42;;;;;;;15.77;7.15;;;10.70;99.90;;;;;;5016134;28;20030;-63
2023/09/30 06:30:09;;;;;;;18.30;7.47;;;10.80;99.90;;;;;;5013690;28;20045;-60
2023/09/30 06:32:35;;;;;;;18.42;7.28;;;10.80;99.90;;;;;;5015388;28;20495;-63
2023/09/30 06:35:02;;;;;;;32.45;8.25;;;10.80;99.90;;;;;;5016261;28;20392;-63
2023/09/30 06:37:29;;;;;;;18.08;7.07;;;10.80;99.90;;;;;;5019943;28;20052;-63
2023/09/30 06:39:55;;;;;;;16.60;6.88;;;10.90;99.90;;;;;;5021811;28;20021;-61
2023/09/30 06:42:21;;;;;;;16.98;7.40;;;10.90;99.90;;;;;;5027698;28;20794;-61
2023/09/30 06:44:46;;;;;;;21.42;8.77;;;11.00;99.90;;;;;;5019684;28;20112;-63
2023/09/30 06:47:12;;;;;;;18.42;8.85;;;11.10;99.90;;;;;;5018289;28;20151;-64
2023/09/30 06:49:38;;;;;;;27.15;9.27;;;11.20;99.90;;;;;;5012612;28;20043;-63
2023/09/30 06:52:04;;;;;;;33.33;10.80;;;11.30;99.90;;;;;;5013154;28;20415;-61
2023/09/30 06:54:33;;;;;;;29.70;9.60;;;11.30;99.90;;;;;;5017922;28;20763;-62
2023/09/30 06:56:59;;;;;;;16.63;8.73;;;11.40;99.90;;;;;;5020560;28;20029;-62
2023/09/30 06:59:26;;;;;;;33.65;10.48;;;11.50;99.90;;;;;;5012885;28;20013;-63
2023/09/30 07:01:51;;;;;;;27.30;10.75;;;11.60;99.90;;;;;;5014746;28;20400;-64
2023/09/30 07:04:17;;;;;;;23.60;9.70;;;11.70;99.90;;;;;;5014000;28;20024;-61
2023/09/30 07:06:42;;;;;;;18.30;9.80;;;11.80;99.90;;;;;;5011048;28;20033;-62
2023/09/30 07:09:10;;;;;;;18.17;9.18;;;11.90;99.90;;;;;;5007016;28;20065;-60
2023/09/30 07:11:36;;;;;;;23.42;10.27;;;12.00;99.90;;;;;;5013414;28;20033;-63
2023/09/30 07:14:01;;;;;;;30.38;11.48;;;12.10;99.90;;;;;;5017737;28;20500;-63
2023/09/30 07:16:27;;;;;;;29.88;10.02;;;12.10;99.90;;;;;;5025359;28;20021;-62
2023/09/30 07:18:52;;;;;;;24.17;9.30;;;12.20;99.90;;;;;;5018953;28;20026;-63
2023/09/30 07:21:18;;;;;;;24.15;10.23;;;12.30;99.90;;;;;;5017998;28;20027;-62
2023/09/30 07:23:44;;;;;;;29.10;11.60;;;12.40;99.90;;;;;;5013373;28;20105;-61
2023/09/30 07:26:09;;;;;;;27.98;12.02;;;12.50;99.90;;;;;;5020949;28;20502;-62
2023/09/30 07:28:35;;;;;;;33.05;12.95;;;12.60;99.90;;;;;;5031162;28;20400;-58
2023/09/30 07:31:00;;;;;;;28.95;12.45;;;12.70;99.90;;;;;;5022329;28;20043;-60
2023/09/30 07:33:26;;;;;;;30.27;12.45;;;12.70;99.90;;;;;;5011821;28;20062;-62
2023/09/30 07:35:51;;;;;;;32.67;11.98;;;12.80;99.90;;;;;;5021810;28;20041;-62
2023/09/30 07:38:17;;;;;;;23.88;11.10;;;12.80;99.90;;;;;;5020174;28;20507;-62
2023/09/30 07:40:43;;;;;;;34.45;14.27;;;12.80;99.90;;;;;;5017406;28;20030;-61
2023/09/30 07:43:08;;;;;;;38.58;15.50;;;12.90;99.90;;;;;;5012590;28;20033;-62
2023/09/30 07:45:34;;;;;;;34.85;14.95;;;12.90;99.90;;;;;;5012228;28;20523;-60
2023/09/30 07:48:00;;;;;;;32.97;14.02;;;13.00;99.90;;;;;;5020578;28;20037;-62
2023/09/30 07:50:26;;;;;;;30.58;14.13;;;13.00;99.90;;;;;;5014386;28;20033;-62
2023/09/30 07:52:52;;;;;;;37.03;15.55;;;13.10;99.90;;;;;;5020034;28;20030;-62
2023/09/30 07:55:17;;;;;;;33.78;15.18;;;13.10;99.90;;;;;;5016149;28;20507;-62
2023/09/30 07:57:43;;;;;;;31.80;16.50;;;13.10;99.90;;;;;;5021068;28;20034;-62
2023/09/30 08:00:14;;;;;;;36.15;15.50;;;13.20;99.90;;;;;;5013196;28;20030;-62
2023/09/30 08:02:40;;;;;;;30.70;14.10;;;13.30;99.90;;;;;;5020025;28;20030;-58
2023/09/30 08:05:06;;;;;;;36.60;15.27;;;13.30;99.90;;;;;;5020509;28;20038;-61
2023/09/30 08:07:33;;;;;;;41.78;20.60;;;13.40;99.90;;;;;;5021055;28;20056;-61
2023/09/30 08:09:59;;;;;;;46.80;20.83;;;13.50;99.90;;;;;;5014674;28;20404;-62
2023/09/30 08:12:25;;;;;;;52.13;22.77;;;13.60;99.90;;;;;;5015168;28;20033;-63
2023/09/30 08:14:51;;;;;;;45.75;21.92;;;13.60;99.90;;;;;;5020634;28;20105;-62
2023/09/30 08:17:17;;;;;;;41.17;19.17;;;13.60;99.90;;;;;;5015914;28;20024;-58
2023/09/30 08:19:44;;;;;;;35.95;18.58;;;13.70;99.90;;;;;;5016620;28;20076;-62
2023/09/30 08:22:09;;;;;;;37.35;19.52;;;13.70;99.90;;;;;;5016909;28;20058;-62
2023/09/30 08:24:35;;;;;;;39.22;20.75;;;13.80;99.90;;;;;;5018924;28;20052;-60
2023/09/30 08:27:01;;;;;;;40.72;20.30;;;13.80;99.90;;;;;;5012815;28;20053;-61
2023/09/30 08:29:27;;;;;;;36.08;20.15;;;13.90;99.90;;;;;;5019391;28;20045;-61
2023/09/30 08:31:52;;;;;;;32.63;17.98;;;13.90;99.90;;;;;;5014580;28;20021;-61
2023/09/30 08:34:21;;;;;;;36.65;19.15;;;14.00;99.90;;;;;;5008373;28;20033;-62
2023/09/30 08:36:46;;;;;;;40.15;18.75;;;14.00;99.90;;;;;;5013781;28;20033;-61
2023/09/30 08:39:12;;;;;;;34.65;17.73;;;14.10;99.90;;;;;;5013877;28;20035;-60
2023/09/30 08:41:38;;;;;;;36.15;18.88;;;14.10;99.90;;;;;;5015503;28;20025;-60
2023/09/30 08:44:04;;;;;;;41.00;18.67;;;14.20;99.90;;;;;;5018224;28;20025;-60
2023/09/30 08:46:34;;;;;;;43.60;20.00;;;14.30;99.90;;;;;;5015569;28;20025;-60
2023/09/30 08:49:05;;;;;;;40.70;19.50;;;14.40;99.90;;;;;;5015282;28;20580;-62
2023/09/30 08:51:32;;;;;;;33.03;16.77;;;14.50;99.90;;;;;;5020118;28;20085;-61
2023/09/30 08:53:59;;;;;;;34.28;18.80;;;14.60;99.90;;;;;;5017276;28;20495;-59
2023/09/30 08:56:28;;;;;;;33.03;17.65;;;14.70;99.90;;;;;;5016077;28;20388;-60
2023/09/30 08:58:57;;;;;;;31.23;17.15;;;14.80;99.90;;;;;;5022866;28;20092;-62
2023/09/30 09:01:30;;;;;;;34.50;15.10;;;14.80;99.90;;;;;;5019569;28;20471;-61
2023/09/30 09:03:56;;;;;;;29.83;14.82;;;14.90;99.90;;;;;;5021460;28;20022;-62
2023/09/30 09:06:24;;;;;;;34.75;17.35;;;15.00;99.90;;;;;;5016990;28;20044;-62
2023/09/30 09:08:50;;;;;;;37.55;17.05;;;15.10;99.90;;;;;;5016738;28;20518;-61
2023/09/30 09:11:17;;;;;;;30.23;15.18;;;15.20;99.90;;;;;;5021125;28;20056;-60
2023/09/30 09:13:50;;;;;;;27.40;14.80;;;15.30;99.90;;;;;;5023142;28;20029;-59
2023/09/30 09:16:20;;;;;;;28.67;15.75;;;15.40;99.90;;;;;;5017674;28;20022;-59
2023/09/30 09:18:49;;;;;;;33.95;16.50;;;15.60;99.90;;;;;;5016970;28;20080;-53
2023/09/30 09:21:20;;;;;;;25.45;14.23;;;15.70;99.90;;;;;;5013682;28;20112;-60
2023/09/30 09:23:51;;;;;;;30.80;14.25;;;15.70;99.90;;;;;;5019994;28;20030;-59
2023/09/30 09:26:28;;;;;;;36.17;15.02;;;15.90;99.90;;;;;;5021791;28;20034;-58
2023/09/30 09:28:58;;;;;;;31.42;14.40;;;16.00;99.90;;;;;;5017325;28;20029;-60
2023/09/30 09:31:34;;;;;;;32.05;12.35;;;16.10;99.90;;;;;;5027899;28;20095;-59
2023/09/30 09:34:00;;;;;;;26.45;13.50;;;16.30;99.90;;;;;;5018090;28;20049;-58
2023/09/30 09:36:40;;;;;;;25.00;14.00;;;16.30;99.90;;;;;;5021667;28;20492;-58
2023/09/30 09:39:06;;;;;;;22.55;13.45;;;16.50;99.90;;;;;;5023391;28;20101;-58
2023/09/30 09:41:32;;;;;;;28.52;13.55;;;16.60;99.90;;;;;;5018830;28;20108;-60
2023/09/30 09:43:59;;;;;;;27.73;13.40;;;16.80;99.90;;;;;;5013942;28;20160;-57
2023/09/30 09:46:27;;;;;;;27.90;13.02;;;16.90;99.90;;;;;;5012683;28;20738;-57
2023/09/30 09:48:53;;;;;;;23.80;11.20;;;17.00;99.90;;;;;;5011222;28;20188;-58
2023/09/30 09:51:21;;;;;;;22.42;12.55;;;17.10;99.90;;;;;;5014400;28;20574;-61
2023/09/30 09:53:49;;;;;;;26.88;12.15;;;17.20;99.90;;;;;;5014699;28;20499;-59
2023/09/30 09:56:16;;;;;;;25.50;11.68;;;17.30;99.90;;;;;;5023205;28;20033;-61
2023/09/30 09:58:43;;;;;;;19.83;9.77;;;17.40;99.90;;;;;;5019069;28;20040;-57
2023/09/30 10:01:10;;;;;;;17.88;10.85;;;17.50;99.90;;;;;;5017528;28;20114;-58
2023/09/30 10:03:37;;;;;;;21.05;10.75;;;17.60;99.90;;;;;;5015766;28;20020;-59
2023/09/30 10:06:04;;;;;;;24.50;9.52;;;17.80;99.90;;;;;;5022597;28;20034;-60
2023/09/30 10:08:40;;;;;;;22.42;10.02;;;17.80;99.90;;;;;;5020261;28;20033;-59
2023/09/30 10:11:06;;;;;;;22.45;11.35;;;17.90;99.90;;;;;;5023174;28;20510;-59
2023/09/30 10:14:02;;;;;;;22.55;11.00;;;17.90;99.90;;;;;;5017887;28;20041;-58
2023/09/30 10:16:37;;;;;;;23.45;11.15;;;18.00;99.90;;;;;;5016425;28;20075;-59
2023/09/30 10:19:17;;;;;;;;;;;18.30;99.90;;;;;;5013366;28;20083;-60
2023/09/30 10:22:19;;;;;;;16.83;9.40;;;18.20;99.90;;;;;;5018314;28;19916;-61
2023/09/30 10:25:11;;;;;;;22.10;9.50;;;18.10;99.90;;;;;;5018892;28;20025;-60
2023/09/30 10:27:37;;;;;;;23.17;9.10;;;18.20;99.90;;;;;;5016320;28;20065;-61
2023/09/30 10:30:06;;;;;;;18.83;8.90;;;17.90;99.90;;;;;;5019178;28;20048;-58
2023/09/30 10:32:50;;;;;;;17.63;9.20;;;17.90;99.90;;;;;;5014797;28;20064;-58
2023/09/30 10:35:39;;;;;;;23.08;9.70;;;18.10;99.90;;;;;;5018059;28;20022;-57
2023/09/30 10:38:24;;;;;;;23.33;8.68;;;18.10;99.90;;;;;;5022514;28;20034;-55
2023/09/30 10:40:52;;;;;;;18.70;8.60;;;18.20;99.90;;;;;;5021376;28;20014;-56
2023/09/30 10:43:38;;;;;;;26.35;9.65;;;18.30;99.90;;;;;;5016472;28;20037;-59
2023/09/30 10:46:27;;;;;;;15.32;7.57;;;18.50;99.90;;;;;;5019573;28;20082;-60
2023/09/30 10:48:53;;;;;;;19.45;8.18;;;18.70;99.90;;;;;;5022662;28;20096;-56
2023/09/30 10:51:23;;;;;;;18.00;8.25;;;18.80;99.90;;;;;;5013970;28;20498;-58
2023/09/30 10:54:00;;;;;;;14.23;6.75;;;18.50;99.90;;;;;;5016403;28;20034;-59
2023/09/30 10:56:32;;;;;;;22.30;7.10;;;18.40;99.90;;;;;;5021076;28;20505;-58
2023/09/30 10:58:59;;;;;;;14.10;6.63;;;18.30;99.90;;;;;;5024220;28;20492;-59
2023/09/30 11:01:25;;;;;;;15.75;5.13;;;18.70;99.90;;;;;;5016771;28;20029;-58
2023/09/30 11:03:58;;;;;;;14.93;4.40;;;18.80;99.90;;;;;;5015424;28;20368;-58
2023/09/30 11:06:23;;;;;;;9.35;4.07;;;18.70;99.90;;;;;;5017621;28;20485;-58
2023/09/30 11:08:59;;;;;;;15.32;4.95;;;18.90;99.90;;;;;;5018413;28;20038;-60
2023/09/30 11:11:49;;;;;;;15.48;5.30;;;19.10;99.90;;;;;;5017567;28;20087;-60
2023/09/30 11:14:21;;;;;;;11.27;4.63;;;19.20;99.90;;;;;;5018718;28;20021;-57
2023/09/30 11:16:47;;;;;;;11.48;4.38;;;18.90;99.90;;;;;;5018763;28;20108;-55
2023/09/30 11:19:13;;;;;;;12.45;4.25;;;18.90;99.90;;;;;;5016264;28;20091;-58
2023/09/30 11:21:39;;;;;;;23.05;4.40;;;18.70;99.90;;;;;;5013943;28;20049;-57
2023/09/30 11:24:06;;;;;;;10.02;3.67;;;18.70;99.90;;;;;;5020385;28;20096;-57
2023/09/30 11:26:33;;;;;;;12.52;4.00;;;19.00;99.90;;;;;;5017168;28;20048;-58
2023/09/30 11:29:13;;;;;;;11.60;4.40;;;19.30;99.90;;;;;;5018994;28;20036;-58
2023/09/30 11:31:40;;;;;;;6.40;3.35;;;19.60;99.90;;;;;;5020155;28;20565;-57
2023/09/30 11:34:07;;;;;;;10.30;4.10;;;20.00;99.90;;;;;;5016902;28;20080;-56
2023/09/30 11:36:36;;;;;;;15.05;3.63;;;19.90;99.90;;;;;;5019594;28;20460;-57
2023/09/30 11:39:02;;;;;;;7.72;3.15;;;20.10;99.90;;;;;;5022181;28;20388;-60
2023/09/30 11:41:41;;;;;;;10.95;3.38;;;20.70;99.90;;;;;;5025916;28;20447;-59
2023/09/30 11:44:12;;;;;;;13.05;3.38;;;20.80;99.90;;;;;;5019764;28;20112;-58
2023/09/30 11:46:59;;;;;;;11.77;3.03;;;21.00;99.90;;;;;;5015212;28;20029;-59
2023/09/30 11:49:27;;;;;;;9.85;2.65;;;21.20;99.90;;;;;;5014722;28;20191;-61
2023/09/30 11:51:53;;;;;;;8.65;3.08;;;21.70;99.90;;;;;;5018179;28;20022;-58
2023/09/30 11:54:18;;;;;;;9.25;3.40;;;22.00;99.90;;;;;;5016337;28;20025;-59
2023/09/30 11:56:45;;;;;;;12.65;3.10;;;22.40;99.90;;;;;;5019519;28;20104;-57
2023/09/30 11:59:10;;;;;;;10.63;3.40;;;22.60;99.90;;;;;;5023179;28;20428;-55
2023/09/30 12:01:37;;;;;;;12.05;2.90;;;22.10;99.90;;;;;;5019842;28;20034;-54
2023/09/30 12:04:03;;;;;;;8.75;2.65;;;22.40;99.90;;;;;;5019992;28;20037;-59
2023/09/30 12:06:29;;;;;;;5.72;2.42;;;22.60;99.90;;;;;;5016026;28;20025;-60
2023/09/30 12:08:54;;;;;;;6.05;2.58;;;22.50;99.90;;;;;;5018459;28;20072;-56
2023/09/30 12:11:20;;;;;;;8.10;2.95;;;22.30;99.90;;;;;;5018497;28;20424;-59
2023/09/30 12:13:48;;;;;;;9.52;3.00;;;22.00;99.90;;;;;;5020728;28;20575;-60
2023/09/30 12:16:15;;;;;;;9.18;2.88;;;22.00;99.90;;;;;;5020107;28;20280;-59
2023/09/30 12:18:41;;;;;;;6.63;2.30;;;21.80;99.90;;;;;;5024112;28;20038;-56
2023/09/30 12:21:11;;;;;;;9.73;2.60;;;21.50;99.90;;;;;;5017738;28;20021;-57
2023/09/30 12:23:37;;;;;;;10.55;2.75;;;21.40;99.90;;;;;;5018240;28;20037;-59
2023/09/30 12:26:05;;;;;;;8.00;2.60;;;21.00;99.90;;;;;;5020711;28;20018;-59
2023/09/30 12:28:32;;;;;;;9.90;2.75;;;21.10;99.90;;;;;;5022532;28;20029;-60
2023/09/30 12:30:58;;;;;;;12.07;2.83;;;21.00;99.90;;;;;;5017121;28;20088;-57
2023/09/30 12:33:24;;;;;;;8.85;2.55;;;20.60;99.90;;;;;;5030169;28;20029;-57
2023/09/30 12:35:51;;;;;;;13.15;3.03;;;20.70;99.90;;;;;;5020788;28;20021;-57
2023/09/30 12:38:16;;;;;;;12.57;2.95;;;20.80;99.90;;;;;;5013667;28;20448;-56
2023/09/30 12:40:43;;;;;;;8.10;3.17;;;21.30;99.90;;;;;;5022293;28;20065;-60
2023/09/30 12:43:10;;;;;;;13.73;3.15;;;21.50;99.90;;;;;;5019414;28;20500;-60
2023/09/30 12:45:38;;;;;;;17.52;2.97;;;21.70;99.90;;;;;;5024074;28;20107;-57
2023/09/30 12:48:04;;;;;;;5.72;2.45;;;21.70;99.90;;;;;;5018694;28;20167;-58
2023/09/30 12:50:29;;;;;;;6.40;2.47;;;21.90;99.90;;;;;;5021431;28;20494;-57
2023/09/30 12:52:55;;;;;;;7.97;2.15;;;22.00;99.90;;;;;;5022419;28;20030;-60
2023/09/30 12:55:20;;;;;;;8.90;2.60;;;21.80;99.90;;;;;;5021158;28;20030;-56
2023/09/30 12:57:46;;;;;;;10.38;2.72;;;21.80;99.90;;;;;;5025750;28;20022;-60
2023/09/30 13:00:12;;;;;;;7.72;2.65;;;21.90;99.90;;;;;;5012561;28;20093;-51
2023/09/30 13:02:38;;;;;;;6.28;2.35;;;21.30;99.90;;;;;;5021063;28;20045;-57
2023/09/30 13:05:06;;;;;;;8.25;2.38;;;21.00;99.90;;;;;;5020555;28;20544;-59